createdAt,value
2022-11-21T00:01:23.266Z,0.98
2022-11-21T00:03:50.641Z,1.05
2022-11-21T00:06:18.243Z,1.17
2022-11-21T00:08:45.660Z,0.80
2022-11-21T00:11:12.723Z,0.90
2022-11-21T00:13:39.891Z,0.85
2022-11-21T00:16:16.812Z,0.95
2022-11-21T00:18:46.810Z,1.20
2022-11-21T00:21:16.068Z,1.10
2022-11-21T00:23:44.184Z,1.10
2022-11-21T00:26:12.440Z,0.95
2022-11-21T00:28:39.233Z,1.10
2022-11-21T00:31:06.597Z,1.05
2022-11-21T00:33:36.038Z,1.23
2022-11-21T00:36:08.209Z,0.90
2022-11-21T00:38:35.327Z,1.30
2022-11-21T00:41:02.045Z,1.67
2022-11-21T00:43:28.772Z,1.27
2022-11-21T00:45:55.559Z,0.90
2022-11-21T00:48:22.318Z,1.00
2022-11-21T00:50:50.066Z,1.20
2022-11-21T00:53:16.755Z,1.10
2022-11-21T00:55:43.489Z,1.00
2022-11-21T00:58:10.275Z,1.20
2022-11-21T01:00:37.073Z,1.10
2022-11-21T01:03:03.885Z,1.00
2022-11-21T01:05:33.093Z,1.00
2022-11-21T01:07:59.837Z,1.10
2022-11-21T01:10:26.597Z,1.00
2022-11-21T01:12:53.385Z,0.90
2022-11-21T01:15:20.104Z,0.85
2022-11-21T01:17:46.985Z,0.70
2022-11-21T01:20:14.051Z,0.80
2022-11-21T01:22:40.806Z,0.90
2022-11-21T01:25:07.903Z,1.25
2022-11-21T01:27:34.602Z,1.02
2022-11-21T01:30:01.469Z,0.80
2022-11-21T01:32:28.185Z,0.93
2022-11-21T01:34:54.929Z,0.90
2022-11-21T01:37:21.676Z,0.90
2022-11-21T01:39:48.407Z,0.90
2022-11-21T01:42:15.194Z,1.50
2022-11-21T01:45:00.627Z,0.80
2022-11-21T01:47:27.299Z,1.60
2022-11-21T01:49:54.349Z,1.00
2022-11-21T01:52:26.009Z,1.00
2022-11-21T01:55:02.612Z,0.90
2022-11-21T01:57:37.759Z,1.10
2022-11-21T02:00:07.718Z,1.20
2022-11-21T02:02:38.924Z,1.20
2022-11-21T02:05:08.672Z,0.93
2022-11-21T02:07:41.022Z,1.50
2022-11-21T02:10:09.469Z,1.10
2022-11-21T02:12:39.953Z,0.90
2022-11-21T02:15:07.458Z,0.90
2022-11-21T02:17:34.254Z,0.90
2022-11-21T02:20:12.357Z,1.00
2022-11-21T02:22:42.129Z,1.00
2022-11-21T02:25:10.253Z,1.08
2022-11-21T02:27:37.117Z,1.27
2022-11-21T02:30:05.941Z,1.50
2022-11-21T02:32:36.135Z,1.73
2022-11-21T02:35:03.484Z,1.40
2022-11-21T02:37:32.126Z,1.20
2022-11-21T02:40:02.720Z,1.58
2022-11-21T02:42:46.802Z,1.50
2022-11-21T02:45:21.236Z,1.27
2022-11-21T02:47:50.802Z,1.30
2022-11-21T02:50:26.841Z,1.37
2022-11-21T02:52:53.917Z,1.10
2022-11-21T02:55:20.656Z,1.20
2022-11-21T02:57:47.737Z,1.30
2022-11-21T03:00:14.671Z,1.27
2022-11-21T03:02:41.701Z,1.13
2022-11-21T03:05:10.472Z,1.15
2022-11-21T03:07:37.362Z,1.27
2022-11-21T03:10:05.396Z,1.65
2022-11-21T03:12:32.139Z,1.13
2022-11-21T03:14:59.008Z,1.27
2022-11-21T03:17:25.698Z,1.00
2022-11-21T03:19:52.412Z,1.33
2022-11-21T03:22:19.167Z,1.08
2022-11-21T03:24:45.874Z,1.20
2022-11-21T03:27:12.632Z,1.10
2022-11-21T03:29:39.470Z,1.42
2022-11-21T03:32:06.343Z,1.20
2022-11-21T03:34:33.186Z,1.00
2022-11-21T03:36:59.927Z,1.10
2022-11-21T03:39:26.714Z,1.35
2022-11-21T03:41:56.625Z,1.02
2022-11-21T03:44:23.470Z,1.23
2022-11-21T03:46:50.569Z,1.30
2022-11-21T03:49:17.324Z,1.10
2022-11-21T03:51:44.934Z,1.13
2022-11-21T03:54:12.016Z,1.33
2022-11-21T03:56:41.722Z,1.13
2022-11-21T03:59:08.566Z,1.10
2022-11-21T04:01:37.038Z,1.00
2022-11-21T04:04:04.841Z,1.20
2022-11-21T04:06:31.709Z,1.20
2022-11-21T04:08:58.662Z,1.23
2022-11-21T04:11:25.481Z,1.00
2022-11-21T04:13:52.940Z,1.00
2022-11-21T04:16:20.009Z,1.27
2022-11-21T04:18:47.042Z,1.23
2022-11-21T04:21:13.809Z,1.20
2022-11-21T04:23:40.579Z,1.30
2022-11-21T04:26:07.281Z,1.08
2022-11-21T04:28:34.073Z,0.90
2022-11-21T04:31:11.200Z,1.30
2022-11-21T04:33:41.144Z,1.20
2022-11-21T04:36:08.689Z,1.10
2022-11-21T04:38:35.836Z,1.15
2022-11-21T04:41:02.679Z,1.25
2022-11-21T04:43:29.462Z,1.20
2022-11-21T04:45:59.319Z,1.80
2022-11-21T04:48:26.083Z,1.27
2022-11-21T04:50:52.876Z,1.45
2022-11-21T04:53:19.668Z,1.10
2022-11-21T04:55:46.402Z,1.63
2022-11-21T04:58:13.973Z,1.33
2022-11-21T05:00:40.653Z,1.40
2022-11-21T05:03:07.851Z,1.33
2022-11-21T05:05:34.570Z,1.40
2022-11-21T05:08:01.277Z,1.75
2022-11-21T05:10:28.014Z,1.73
2022-11-21T05:13:18.067Z,1.65
2022-11-21T05:15:45.161Z,1.50
2022-11-21T05:18:12.352Z,1.52
2022-11-21T05:20:39.281Z,1.35
2022-11-21T05:23:06.149Z,1.20
2022-11-21T05:25:33.072Z,1.20
2022-11-21T05:27:59.799Z,1.00
2022-11-21T05:30:26.633Z,1.20
2022-11-21T05:32:53.394Z,1.30
2022-11-21T05:35:20.340Z,2.08
2022-11-21T05:37:47.176Z,1.80
2022-11-21T05:40:14.070Z,1.70
2022-11-21T05:43:01.140Z,1.20
2022-11-21T05:45:34.055Z,1.75
2022-11-21T05:48:00.825Z,1.30
2022-11-21T05:50:27.555Z,1.30
2022-11-21T05:52:54.298Z,1.30
2022-11-21T05:55:21.043Z,1.20
2022-11-21T05:57:47.760Z,1.10
2022-11-21T06:00:15.186Z,1.30
2022-11-21T06:03:00.447Z,1.10
2022-11-21T06:05:27.230Z,1.10
2022-11-21T06:07:53.955Z,1.17
2022-11-21T06:10:20.779Z,1.20
2022-11-21T06:12:47.542Z,1.45
2022-11-21T06:15:14.377Z,1.10
2022-11-21T06:17:41.113Z,1.20
2022-11-21T06:20:08.789Z,1.35
2022-11-21T06:22:35.508Z,1.27
2022-11-21T06:25:02.274Z,1.30
2022-11-21T06:27:29.722Z,1.42
2022-11-21T06:29:56.448Z,1.35
2022-11-21T06:32:23.229Z,1.02
2022-11-21T06:34:49.967Z,1.23
2022-11-21T06:37:16.728Z,1.40
2022-11-21T06:39:43.508Z,1.35
2022-11-21T06:42:10.260Z,1.63
2022-11-21T06:44:36.950Z,1.40
2022-11-21T06:47:03.713Z,1.48
2022-11-21T06:49:30.413Z,1.48
2022-11-21T06:51:57.146Z,1.83
2022-11-21T06:54:23.866Z,1.60
2022-11-21T06:56:53.134Z,1.40
2022-11-21T06:59:19.863Z,1.30
2022-11-21T07:01:46.718Z,1.60
2022-11-21T07:04:13.518Z,1.30
2022-11-21T07:06:40.257Z,1.40
2022-11-21T07:11:53.836Z,1.55
2022-11-21T07:14:20.525Z,1.40
2022-11-21T07:16:47.234Z,1.75
2022-11-21T07:19:14.027Z,1.65
2022-11-21T07:21:40.730Z,1.40
2022-11-21T07:24:07.525Z,1.70
2022-11-21T07:26:34.282Z,1.60
2022-11-21T07:29:01.162Z,1.60
2022-11-21T07:31:27.990Z,1.35
2022-11-21T07:33:54.782Z,1.40
2022-11-21T07:36:21.615Z,1.40
2022-11-21T07:38:48.465Z,1.40
2022-11-21T07:41:15.201Z,1.50
2022-11-21T07:43:41.897Z,1.10
2022-11-21T07:46:08.668Z,1.65
2022-11-21T07:48:35.459Z,1.80
2022-11-21T07:51:05.898Z,1.92
2022-11-21T07:53:32.899Z,1.38
2022-11-21T07:56:00.158Z,1.27
2022-11-21T07:58:27.071Z,1.35
2022-11-21T08:00:53.913Z,1.40
2022-11-21T08:03:20.711Z,1.60
2022-11-21T08:05:47.558Z,1.42
2022-11-21T08:08:15.255Z,1.20
2022-11-21T08:10:46.105Z,1.40
2022-11-21T08:13:13.916Z,1.20
2022-11-21T08:15:40.978Z,1.40
2022-11-21T08:18:12.126Z,1.48
2022-11-21T08:20:38.944Z,1.63
2022-11-21T08:23:06.565Z,1.52
2022-11-21T08:25:41.044Z,1.40
2022-11-21T08:28:09.613Z,2.15
2022-11-21T08:30:36.935Z,1.63
2022-11-21T08:33:04.510Z,1.53
2022-11-21T08:35:31.297Z,1.90
2022-11-21T08:37:59.584Z,1.87
2022-11-21T08:40:27.939Z,1.90
2022-11-21T08:43:02.674Z,1.77
2022-11-21T08:45:30.118Z,1.42
2022-11-21T08:47:57.686Z,2.10
2022-11-21T08:50:25.167Z,2.20
2022-11-21T08:52:52.234Z,2.20
2022-11-21T08:55:20.434Z,2.10
2022-11-21T08:57:47.178Z,1.60
2022-11-21T09:00:14.556Z,2.07
2022-11-21T09:02:41.389Z,1.63
2022-11-21T09:05:09.152Z,4.07
2022-11-21T09:07:36.115Z,2.13
2022-11-21T09:10:03.421Z,2.70
2022-11-21T09:12:31.403Z,2.03
2022-11-21T09:15:16.774Z,2.20
2022-11-21T09:18:02.249Z,1.70
2022-11-21T09:20:29.260Z,1.53
2022-11-21T09:22:56.093Z,2.20
2022-11-21T09:25:22.833Z,1.60
2022-11-21T09:27:49.555Z,2.00
2022-11-21T09:30:16.562Z,1.83
2022-11-21T09:32:43.280Z,2.10
2022-11-21T09:35:10.012Z,1.73
2022-11-21T09:37:38.178Z,1.93
2022-11-21T09:40:08.217Z,1.20
2022-11-21T09:42:49.782Z,2.30
2022-11-21T09:45:23.483Z,1.57
2022-11-21T09:47:51.960Z,2.60
2022-11-21T09:50:34.532Z,1.73
2022-11-21T09:53:15.681Z,1.93
2022-11-21T09:56:12.362Z,2.60
2022-11-21T09:58:44.687Z,1.47
2022-11-21T10:01:16.172Z,2.00
2022-11-21T10:03:49.278Z,1.70
2022-11-21T10:06:25.272Z,1.60
2022-11-21T10:09:04.000Z,1.27
2022-11-21T10:12:13.985Z,1.67
2022-11-21T10:15:01.731Z,2.13
2022-11-21T10:18:02.455Z,1.90
2022-11-21T10:20:32.400Z,1.80
2022-11-21T10:23:20.204Z,1.50
2022-11-21T10:26:15.371Z,1.40
2022-11-21T10:29:01.921Z,1.63
2022-11-21T10:31:36.131Z,1.70
2022-11-21T10:34:10.229Z,1.47
2022-11-21T10:36:39.464Z,1.63
2022-11-21T10:39:27.648Z,1.50
2022-11-21T10:42:01.543Z,2.23
2022-11-21T10:44:48.151Z,1.40
2022-11-21T10:47:27.556Z,1.40
2022-11-21T10:50:20.535Z,2.13
2022-11-21T10:52:49.342Z,1.37
2022-11-21T10:55:17.486Z,1.40
2022-11-21T10:57:51.770Z,1.70
2022-11-21T11:00:22.243Z,1.70
2022-11-21T11:03:00.166Z,1.70
2022-11-21T11:05:29.347Z,1.60
2022-11-21T11:08:27.623Z,1.50
2022-11-21T11:11:13.746Z,1.90
2022-11-21T11:13:59.616Z,1.90
2022-11-21T11:16:28.211Z,1.80
2022-11-21T11:19:16.684Z,1.57
2022-11-21T11:21:45.444Z,2.63
2022-11-21T11:24:12.342Z,2.33
2022-11-21T11:26:48.808Z,1.70
2022-11-21T11:29:26.340Z,1.20
2022-11-21T11:31:59.320Z,1.40
2022-11-21T11:34:47.510Z,1.70
2022-11-21T11:37:37.177Z,1.93
2022-11-21T11:40:28.416Z,1.53
2022-11-21T11:43:25.864Z,1.53
2022-11-21T11:46:28.790Z,2.10
2022-11-21T11:49:21.150Z,1.80
2022-11-21T11:52:02.038Z,1.70
2022-11-21T11:54:52.683Z,1.70
2022-11-21T11:57:19.939Z,1.57
2022-11-21T12:00:03.699Z,1.70
2022-11-21T12:03:00.321Z,1.67
2022-11-21T12:05:30.062Z,1.40
2022-11-21T12:11:30.375Z,1.50
2022-11-21T12:14:11.498Z,1.60
2022-11-21T12:16:41.333Z,1.87
2022-11-21T12:19:15.681Z,1.73
2022-11-21T12:21:42.585Z,2.30
2022-11-21T12:24:11.602Z,1.80
2022-11-21T12:27:05.559Z,1.40
2022-11-21T12:29:53.882Z,1.30
2022-11-21T12:32:48.865Z,1.50
2022-11-21T12:35:44.743Z,1.50
2022-11-21T12:38:56.125Z,2.57
2022-11-21T12:41:56.485Z,1.70
2022-11-21T12:44:26.218Z,1.80
2022-11-21T12:47:11.947Z,2.10
2022-11-21T12:50:23.829Z,1.90
2022-11-21T12:53:29.635Z,1.30
2022-11-21T12:56:03.984Z,1.67
2022-11-21T12:58:39.299Z,1.87
2022-11-21T13:01:35.528Z,1.60
2022-11-21T13:04:05.770Z,1.87
2022-11-21T13:06:40.063Z,1.63
2022-11-21T13:09:13.175Z,2.00
2022-11-21T13:12:00.320Z,2.70
2022-11-21T13:14:32.931Z,2.93
2022-11-21T13:17:08.863Z,3.10
2022-11-21T13:19:56.226Z,2.60
2022-11-21T13:22:51.250Z,2.13
2022-11-21T13:25:33.741Z,3.40
2022-11-21T13:28:18.899Z,3.17
2022-11-21T13:30:49.921Z,3.13
2022-11-21T13:33:35.017Z,2.37
2022-11-21T13:36:12.199Z,1.60
2022-11-21T13:38:53.917Z,2.70
2022-11-21T13:41:54.048Z,1.57
2022-11-21T13:44:32.875Z,1.60
2022-11-21T13:47:12.350Z,1.47
2022-11-21T13:49:56.799Z,1.97
2022-11-21T13:52:41.047Z,1.10
2022-11-21T13:55:10.546Z,2.17
2022-11-21T13:57:55.636Z,1.20
2022-11-21T14:00:34.393Z,1.37
2022-11-21T14:03:03.814Z,1.67
2022-11-21T14:05:39.686Z,1.33
2022-11-21T14:08:22.250Z,1.20
2022-11-21T14:10:51.583Z,1.70
2022-11-21T14:13:28.013Z,1.70
2022-11-21T14:16:32.405Z,1.70
2022-11-21T14:18:59.273Z,2.00
2022-11-21T14:21:29.369Z,1.70
2022-11-21T14:24:05.686Z,2.10
2022-11-21T14:26:42.134Z,1.80
2022-11-21T14:29:27.411Z,1.37
2022-11-21T14:31:55.652Z,1.53
2022-11-21T14:34:30.799Z,1.50
2022-11-21T14:37:04.881Z,1.60
2022-11-21T14:39:38.132Z,1.57
2022-11-21T14:42:20.343Z,1.53
2022-11-21T14:44:47.064Z,1.27
2022-11-21T14:47:19.779Z,1.67
2022-11-21T14:49:54.092Z,1.40
2022-11-21T14:52:31.363Z,1.70
2022-11-21T14:55:28.714Z,1.77
2022-11-21T14:57:47.575Z,1.90
2022-11-21T15:00:57.333Z,1.40
2022-11-21T15:03:23.253Z,1.30
2022-11-21T15:09:28.989Z,1.60
2022-11-21T15:11:37.897Z,1.90
2022-11-21T15:14:20.666Z,1.77
2022-11-21T15:16:50.083Z,1.77
2022-11-21T15:19:26.069Z,2.43
2022-11-21T15:21:57.032Z,2.90
2022-11-21T15:24:42.420Z,2.20
2022-11-21T15:27:27.327Z,1.97
2022-11-21T15:30:12.450Z,2.60
2022-11-21T15:32:59.182Z,3.70
2022-11-21T15:35:38.122Z,2.47
2022-11-21T15:38:20.766Z,2.10
2022-11-21T15:40:57.569Z,2.50
2022-11-21T15:43:44.420Z,2.80
2022-11-21T15:46:27.837Z,1.63
2022-11-21T15:48:56.631Z,2.30
2022-11-21T15:54:21.817Z,2.27
2022-11-21T15:56:49.168Z,3.33
2022-11-21T15:57:14.648Z,1.53
2022-11-21T15:59:16.183Z,2.43
2022-11-21T16:01:43.180Z,2.50
2022-11-21T16:04:12.037Z,2.53
2022-11-21T16:06:39.276Z,1.63
2022-11-21T16:09:06.081Z,2.10
2022-11-21T16:11:37.259Z,4.30
2022-11-21T16:14:06.454Z,4.03
2022-11-21T16:16:42.652Z,4.33
2022-11-21T16:19:11.581Z,5.27
2022-11-21T16:21:38.690Z,6.70
2022-11-21T16:24:05.734Z,7.50
2022-11-21T16:26:33.488Z,7.43
2022-11-21T16:29:01.234Z,7.83
2022-11-21T16:31:30.178Z,6.03
2022-11-21T16:33:58.521Z,6.53
2022-11-21T16:36:27.496Z,10.10
2022-11-21T16:38:54.855Z,14.73
2022-11-21T16:41:23.041Z,18.03
2022-11-21T16:43:51.389Z,18.08
2022-11-21T16:46:19.369Z,18.40
2022-11-21T16:48:46.883Z,19.20
2022-11-21T16:51:14.901Z,13.52
2022-11-21T16:53:42.700Z,8.87
2022-11-21T16:56:10.089Z,7.80
2022-11-21T16:58:37.717Z,7.50
2022-11-21T17:01:12.319Z,7.32
2022-11-21T17:03:40.765Z,5.47
2022-11-21T17:06:08.220Z,6.30
2022-11-21T17:08:36.043Z,5.63
2022-11-21T17:11:11.962Z,6.45
2022-11-21T17:13:38.976Z,14.60
2022-11-21T17:16:11.039Z,14.50
2022-11-21T17:18:38.240Z,9.00
2022-11-21T17:21:07.191Z,9.50
2022-11-21T17:23:34.712Z,8.15
2022-11-21T17:26:06.111Z,8.88
2022-11-21T17:28:33.534Z,8.85
2022-11-21T17:31:05.273Z,9.82
2022-11-21T17:33:32.017Z,10.57
2022-11-21T17:35:58.864Z,11.20
2022-11-21T17:38:27.254Z,27.95
2022-11-21T17:41:01.686Z,29.30
2022-11-21T17:43:28.950Z,30.25
2022-11-21T17:46:13.130Z,26.75
2022-11-21T17:48:40.317Z,29.42
2022-11-21T17:51:12.580Z,24.45
2022-11-21T17:53:41.739Z,15.52
2022-11-21T17:56:11.656Z,6.70
2022-11-21T17:58:38.437Z,5.65
2022-11-21T18:01:06.751Z,5.65
2022-11-21T18:03:33.950Z,5.82
2022-11-21T18:06:09.349Z,5.22
2022-11-21T18:08:39.243Z,4.55
2022-11-21T18:11:08.682Z,4.60
2022-11-21T18:13:36.489Z,4.80
2022-11-21T18:16:11.917Z,4.20
2022-11-21T18:18:39.460Z,4.65
2022-11-21T18:21:11.958Z,4.00
2022-11-21T18:23:39.142Z,4.55
2022-11-21T18:26:13.494Z,3.80
2022-11-21T18:28:40.882Z,4.75
2022-11-21T18:31:10.174Z,5.20
2022-11-21T18:33:37.574Z,6.47
2022-11-21T18:36:05.830Z,5.32
2022-11-21T18:38:50.553Z,6.25
2022-11-21T18:41:26.769Z,6.75
2022-11-21T18:43:55.649Z,8.05
2022-11-21T18:46:24.440Z,7.88
2022-11-21T18:49:08.291Z,9.70
2022-11-21T18:51:36.305Z,8.95
2022-11-21T18:54:08.228Z,8.63
2022-11-21T18:56:36.621Z,9.60
2022-11-21T18:59:05.622Z,9.82
2022-11-21T19:01:33.156Z,12.02
2022-11-21T19:04:00.125Z,11.70
2022-11-21T19:06:27.606Z,11.70
2022-11-21T19:08:56.203Z,12.70
2022-11-21T19:11:25.686Z,12.50
2022-11-21T19:13:53.979Z,14.60
2022-11-21T19:16:24.648Z,18.80
2022-11-21T19:21:41.392Z,16.63
2022-11-21T19:24:13.079Z,17.60
2022-11-21T19:26:40.003Z,15.95
2022-11-21T19:29:06.829Z,15.80
2022-11-21T19:31:35.701Z,14.98
2022-11-21T19:34:05.982Z,15.02
2022-11-21T19:36:32.713Z,15.32
2022-11-21T19:38:59.427Z,12.98
2022-11-21T19:41:26.821Z,13.30
2022-11-21T19:43:56.354Z,12.02
2022-11-21T19:46:26.543Z,12.73
2022-11-21T19:48:55.925Z,12.02
2022-11-21T19:51:25.466Z,12.23
2022-11-21T19:53:52.222Z,12.60
2022-11-21T19:56:24.113Z,14.23
2022-11-21T19:58:52.461Z,12.82
2022-11-21T20:01:25.794Z,10.77
2022-11-21T20:03:58.814Z,10.82
2022-11-21T20:06:31.078Z,10.35
2022-11-21T20:08:59.983Z,9.30
2022-11-21T20:11:29.263Z,11.20
2022-11-21T20:13:56.114Z,10.88
2022-11-21T20:16:34.928Z,10.18
2022-11-21T20:19:04.280Z,12.43
2022-11-21T20:21:30.989Z,13.80
2022-11-21T20:23:57.891Z,11.77
2022-11-21T20:26:25.571Z,15.95
2022-11-21T20:28:53.234Z,8.05
2022-11-21T20:31:31.068Z,6.90
2022-11-21T20:34:00.833Z,5.35
2022-11-21T20:36:30.025Z,5.90
2022-11-21T20:39:08.331Z,6.15
2022-11-21T20:41:36.613Z,5.07
2022-11-21T20:46:57.386Z,6.90
2022-11-21T20:49:24.148Z,8.18
2022-11-21T20:53:26.400Z,7.47
2022-11-21T20:54:38.222Z,9.50
2022-11-21T20:57:06.503Z,7.93
2022-11-21T20:59:34.906Z,8.20
2022-11-21T21:02:01.725Z,7.47
2022-11-21T21:04:28.538Z,7.65
2022-11-21T21:06:55.267Z,6.20
2022-11-21T21:09:21.998Z,7.20
2022-11-21T21:11:53.246Z,10.27
2022-11-21T21:14:22.147Z,9.52
2022-11-21T21:16:49.441Z,10.20
2022-11-21T21:19:16.358Z,10.27
2022-11-21T21:21:43.221Z,12.48
2022-11-21T21:24:12.391Z,9.45
2022-11-21T21:26:45.211Z,10.13
2022-11-21T21:29:14.764Z,10.85
2022-11-21T21:31:49.620Z,11.45
2022-11-21T21:34:17.862Z,10.00
2022-11-21T21:36:45.013Z,8.27
2022-11-21T21:39:11.855Z,8.90
2022-11-21T21:41:44.594Z,9.18
2022-11-21T21:44:12.035Z,9.60
2022-11-21T21:46:38.775Z,9.80
2022-11-21T21:49:05.503Z,10.88
2022-11-21T21:51:32.696Z,9.85
2022-11-21T21:54:00.121Z,10.23
2022-11-21T21:56:28.415Z,10.00
2022-11-21T21:58:56.830Z,10.38
2022-11-21T22:01:29.441Z,9.02
2022-11-21T22:03:58.662Z,9.77
2022-11-21T22:06:26.245Z,9.40
2022-11-21T22:08:54.916Z,8.98
2022-11-21T22:11:24.406Z,10.40
2022-11-21T22:13:59.998Z,10.73
2022-11-21T22:16:27.333Z,8.68
2022-11-21T22:18:54.325Z,9.80
2022-11-21T22:21:29.981Z,8.57
2022-11-21T22:26:45.088Z,10.20
2022-11-21T22:29:11.804Z,12.85
2022-11-21T22:31:38.751Z,14.40
2022-11-21T22:34:05.774Z,17.75
2022-11-21T22:36:32.835Z,19.20
2022-11-21T22:38:59.648Z,19.63
2022-11-21T22:41:27.653Z,19.45
2022-11-21T22:43:56.791Z,18.52
2022-11-21T22:46:25.233Z,17.73
2022-11-21T22:48:51.939Z,18.27
2022-11-21T22:51:21.702Z,18.95
2022-11-21T22:53:49.476Z,18.35
2022-11-21T22:56:18.864Z,17.23
2022-11-21T22:58:46.563Z,15.75
2022-11-21T23:01:15.844Z,13.82
2022-11-21T23:03:43.564Z,10.18
2022-11-21T23:06:13.181Z,11.20
2022-11-21T23:08:40.772Z,10.88
2022-11-21T23:11:08.779Z,10.55
2022-11-21T23:13:36.396Z,9.77
2022-11-21T23:16:04.750Z,11.63
2022-11-21T23:18:31.569Z,11.00
2022-11-21T23:20:58.326Z,11.52
2022-11-21T23:23:25.833Z,11.85
2022-11-21T23:25:52.990Z,12.93
2022-11-21T23:28:19.976Z,13.13
2022-11-21T23:30:48.235Z,12.68
2022-11-21T23:33:15.625Z,11.65
2022-11-21T23:35:43.563Z,12.48
2022-11-21T23:38:11.036Z,12.30
2022-11-21T23:40:37.817Z,14.70
2022-11-21T23:43:04.721Z,12.20
2022-11-21T23:45:31.621Z,13.98
2022-11-21T23:47:58.356Z,12.50
2022-11-21T23:50:25.331Z,14.65
2022-11-21T23:52:52.009Z,13.93
2022-11-21T23:55:18.868Z,11.88
2022-11-21T23:57:49.752Z,12.10
